Date,TemperatureHighF,TemperatureAvgF,TemperatureLowF,DewpointHighF,DewpointAvgF,DewpointLowF,HumidityHigh,HumidityAvg,HumidityLow,PressureMaxIn,PressureMinIn,WindSpeedMaxMPH,WindSpeedAvgMPH,GustSpeedMaxMPH,PrecipitationSumIn
2013-3-5,47.7,40.3,32.7,35.4,32.4,29.7,95,76,54,29.88,29.72,1,0,5,0.12
2013-3-6,32.8,32.6,32.6,31.9,31.8,31.4,97,97,95,29.72,29.57,0,0,0,0.01
2013-3-7,40.7,38.8,37.1,28.8,27.9,27.2,69,65,59,30.18,30.17,4,1,8,0.17
2013-3-8,46.6,40.3,36.4,31.0,28.3,24.8,73,62,53,30.27,30.16,6,2,11,0.00
2013-3-9,59.7,44.2,30.7,34.8,29.4,25.6,84,58,35,30.33,30.23,2,0,4,0.00
2013-3-10,65.2,46.2,28.0,38.2,30.8,25.4,92,60,33,30.30,30.16,2,0,4,0.00
2013-3-11,59.0,48.7,34.6,51.6,39.5,27.0,92,71,44,30.20,29.87,2,0,7,0.01
2013-3-12,65.2,55.5,42.7,59.2,47.8,30.6,99,78,49,29.93,29.67,3,1,7,1.23
2013-3-13,50.4,41.4,33.2,33.3,26.6,18.6,84,57,39,30.09,29.89,6,2,11,0.00
2013-3-14,50.9,39.1,28.8,23.0,18.9,16.1,63,45,29,30.16,30.03,6,2,12,0.00
2013-3-15,61.2,46.2,29.1,39.2,27.9,16.9,76,49,40,30.10,29.77,3,0,6,0.00
2013-3-16,69.4,51.9,41.3,56.6,44.6,34.8,95,77,50,29.85,29.57,3,0,5,0.29
2013-3-17,43.9,37.7,33.0,40.5,35.8,31.9,96,93,87,30.25,29.84,2,0,3,0.05
2013-3-18,33.6,32.9,32.5,32.6,32.1,31.7,97,97,96,30.27,29.89,0,0,1,0.41
2013-3-19,60.8,43.9,32.9,46.4,28.9,11.1,99,65,22,29.95,29.73,6,1,13,0.23
2013-3-20,55.5,43.9,32.9,24.4,17.5,12.4,47,35,26,30.00,29.74,4,1,9,0.00
2013-3-21,40.4,34.4,27.9,29.9,17.6,11.0,72,51,36,29.92,29.74,6,2,10,0.00
2013-3-22,51.9,37.3,24.4,25.5,18.0,11.8,65,47,31,29.99,29.86,3,0,6,0.00
2013-3-23,57.7,41.6,25.5,27.7,22.7,17.5,84,50,28,30.04,29.87,2,0,8,0.00
2013-3-24,40.9,35.4,32.4,31.8,27.0,21.6,96,73,48,29.98,29.63,2,0,3,0.01
2013-3-25,39.6,35.1,31.3,36.4,32.9,29.5,97,92,83,29.70,29.51,1,0,3,0.55
2013-3-26,46.0,39.0,30.8,34.4,29.7,27.2,90,70,53,30.03,29.71,5,1,8,0.05
2013-3-27,50.4,41.0,33.0,30.8,27.6,25.3,75,60,43,30.15,30.03,7,2,13,0.00
2013-3-28,49.7,42.2,35.7,30.2,27.5,25.0,73,56,46,30.24,30.11,6,2,12,0.00
2013-3-29,60.0,44.5,31.1,36.3,29.9,26.3,89,60,33,30.27,30.12,3,0,6,0.00
2013-3-30,63.8,46.6,29.0,36.9,30.7,25.8,91,58,31,30.22,30.05,2,0,5,0.00
2013-3-31,54.3,46.4,41.5,50.2,40.4,30.6,97,80,55,30.07,29.73,1,0,4,0.02